createdAt,value
2018-01-11T00:02:54.950Z,99088.95
2018-01-11T00:08:59.386Z,99086.66
2018-01-11T00:15:02.916Z,99088.58
2018-01-11T00:21:07.146Z,99098.62
2018-01-11T00:27:10.729Z,99098.31
2018-01-11T00:33:14.473Z,99097.54
2018-01-11T00:39:18.675Z,99097.48
2018-01-11T00:45:22.885Z,99102.34
2018-01-11T00:51:26.478Z,99097.89
2018-01-11T00:57:29.874Z,99098.38
2018-01-11T01:03:33.429Z,99104.52
2018-01-11T01:09:36.890Z,99103.23
2018-01-11T01:15:40.364Z,99112.04
2018-01-11T01:21:43.837Z,99111.77
2018-01-11T01:27:47.342Z,99123.29
2018-01-11T01:33:50.933Z,99119.16
2018-01-11T01:39:55.494Z,99119.22
2018-01-11T01:45:59.138Z,99123.42
2018-01-11T01:52:02.580Z,99122.92
2018-01-11T01:58:06.814Z,99126.78
2018-01-11T02:04:10.319Z,99128.91
2018-01-11T02:10:13.780Z,99142.80
2018-01-11T02:16:17.232Z,99140.13
2018-01-11T02:22:20.673Z,99145.52
2018-01-11T02:28:24.293Z,99143.17
2018-01-11T02:34:28.102Z,99141.47
2018-01-11T02:40:31.550Z,99141.27
2018-01-11T02:46:34.991Z,99150.66
2018-01-11T02:52:38.463Z,99152.67
2018-01-11T02:58:41.944Z,99151.19
2018-01-11T03:04:45.379Z,99160.37
2018-01-11T03:10:49.159Z,99159.17
2018-01-11T03:16:52.644Z,99165.49
2018-01-11T03:22:57.055Z,99166.11
2018-01-11T03:29:00.588Z,99167.31
2018-01-11T03:35:04.799Z,99160.00
2018-01-11T03:41:08.262Z,99162.15
2018-01-11T03:47:12.642Z,99154.62
2018-01-11T03:53:16.090Z,99145.69
2018-01-11T03:59:19.560Z,99147.87
2018-01-11T04:05:23.009Z,99146.52
2018-01-11T04:11:27.502Z,99144.56
2018-01-11T04:17:30.959Z,99137.80
2018-01-11T04:23:35.350Z,99145.77
2018-01-11T04:29:39.558Z,99149.18
2018-01-11T04:35:43.035Z,99167.63
2018-01-11T04:41:46.554Z,99168.75
2018-01-11T04:47:50.770Z,99176.45
2018-01-11T04:53:54.415Z,99188.81
2018-01-11T04:59:58.929Z,99190.64
2018-01-11T05:06:02.428Z,99188.99
2018-01-11T05:12:06.006Z,99201.27
2018-01-11T05:18:09.657Z,99199.44
2018-01-11T05:24:13.230Z,99213.20
2018-01-11T05:30:17.435Z,99212.84
2018-01-11T05:36:21.060Z,99225.69
2018-01-11T05:42:25.191Z,99234.61
2018-01-11T05:48:28.821Z,99235.98
2018-01-11T05:54:32.280Z,99235.69
2018-01-11T06:00:36.021Z,99244.38
2018-01-11T06:06:39.482Z,99248.27
2018-01-11T06:12:42.950Z,99251.95
2018-01-11T06:18:46.554Z,99257.73
2018-01-11T06:24:50.028Z,99267.42
2018-01-11T06:30:54.856Z,99275.38
2018-01-11T06:36:59.196Z,99285.94
2018-01-11T06:43:02.671Z,99288.64
2018-01-11T06:49:06.945Z,99291.41
2018-01-11T06:55:10.476Z,99293.45
2018-01-11T07:01:14.790Z,99308.45
2018-01-11T07:07:18.268Z,99302.75
2018-01-11T07:13:22.029Z,99312.85
2018-01-11T07:19:25.571Z,99319.94
2018-01-11T07:25:29.069Z,99327.17
2018-01-11T07:31:32.557Z,99322.47
2018-01-11T07:37:36.127Z,99335.66
2018-01-11T07:43:39.572Z,99339.33
2018-01-11T07:49:43.060Z,99352.59
2018-01-11T07:55:47.060Z,99345.80
2018-01-11T08:01:50.538Z,99354.21
2018-01-11T08:07:54.050Z,99355.58
2018-01-11T08:13:58.468Z,99371.89
2018-01-11T08:20:02.031Z,99381.11
2018-01-11T08:26:05.519Z,99387.33
2018-01-11T08:32:08.961Z,99391.23
2018-01-11T08:38:12.458Z,99395.50
2018-01-11T08:44:15.923Z,99403.66
2018-01-11T08:50:19.359Z,99401.70
2018-01-11T08:56:24.181Z,99402.58
2018-01-11T09:02:28.216Z,99405.85
2018-01-11T09:08:32.431Z,99408.75
2018-01-11T09:14:35.905Z,99416.91
2018-01-11T09:20:39.632Z,99433.47
2018-01-11T09:26:43.094Z,99435.55
2018-01-11T09:32:46.528Z,99446.09
2018-01-11T09:38:50.003Z,99450.38
2018-01-11T09:44:53.699Z,99449.25
2018-01-11T09:50:57.844Z,99452.97
2018-01-11T09:57:01.456Z,99449.29
2018-01-11T10:03:05.191Z,99451.20
2018-01-11T10:09:09.417Z,99447.41
2018-01-11T10:15:12.924Z,99448.58
2018-01-11T10:21:17.166Z,99446.12
2018-01-11T10:27:20.618Z,99447.03
2018-01-11T10:33:24.117Z,99450.81
2018-01-11T10:39:28.433Z,99443.39
2018-01-11T10:45:31.874Z,99446.02
2018-01-11T10:51:35.344Z,99447.02
2018-01-11T10:57:38.860Z,99453.74
2018-01-11T11:03:42.314Z,99460.24
2018-01-11T11:09:45.740Z,99463.52
2018-01-11T11:15:49.950Z,99462.19
2018-01-11T11:21:53.438Z,99467.09
2018-01-11T11:27:57.287Z,99461.23
2018-01-11T11:34:00.765Z,99459.98
2018-01-11T11:40:04.205Z,99465.30
2018-01-11T11:46:07.650Z,99466.00
2018-01-11T11:52:11.126Z,99471.14
2018-01-11T11:58:15.325Z,99471.71
2018-01-11T12:04:18.800Z,99476.62
2018-01-11T12:10:22.303Z,99476.06
2018-01-11T12:16:26.213Z,99467.45
2018-01-11T12:22:30.748Z,99471.94
2018-01-11T12:28:34.966Z,99474.45
2018-01-11T12:34:38.432Z,99484.97
2018-01-11T12:40:41.905Z,99481.81
2018-01-11T12:46:45.378Z,99473.84
2018-01-11T12:52:49.613Z,99487.25
2018-01-11T12:58:53.110Z,99481.19
2018-01-11T13:04:57.650Z,99488.07
2018-01-11T13:11:01.118Z,99488.80
2018-01-11T13:17:04.591Z,99499.71
2018-01-11T13:23:09.007Z,99512.75
2018-01-11T13:29:12.472Z,99515.09
2018-01-11T13:35:15.921Z,99519.91
2018-01-11T13:41:19.427Z,99521.91
2018-01-11T13:47:23.702Z,99526.23
2018-01-11T13:53:27.246Z,99533.64
2018-01-11T13:59:30.766Z,99541.21
2018-01-11T14:05:34.213Z,99550.64
2018-01-11T14:11:37.662Z,99556.54
2018-01-11T14:17:41.106Z,99554.20
2018-01-11T14:23:44.544Z,99562.06
2018-01-11T14:29:48.039Z,99561.61
2018-01-11T14:35:51.486Z,99570.16
2018-01-11T14:41:54.972Z,99577.23
2018-01-11T14:47:59.348Z,99571.75
2018-01-11T14:54:02.964Z,99583.76
2018-01-11T15:00:06.433Z,99584.98
2018-01-11T15:06:09.967Z,99595.69
2018-01-11T15:12:13.427Z,99597.77
2018-01-11T15:18:16.905Z,99608.29
2018-01-11T15:24:20.342Z,99613.89
2018-01-11T15:30:23.834Z,99619.52
2018-01-11T15:36:28.202Z,99617.03
2018-01-11T15:42:32.482Z,99626.64
2018-01-11T15:48:36.695Z,99633.19
2018-01-11T15:54:40.245Z,99644.10
2018-01-11T16:00:43.685Z,99647.06
2018-01-11T16:06:47.130Z,99653.61
2018-01-11T16:12:50.546Z,99659.64
2018-01-11T16:18:54.247Z,99661.06
2018-01-11T16:24:58.040Z,99666.34
2018-01-11T16:31:01.507Z,99678.01
2018-01-11T16:37:04.972Z,99684.82
2018-01-11T16:43:09.268Z,99687.89
2018-01-11T16:49:13.498Z,99686.79
2018-01-11T16:55:16.975Z,99695.59
2018-01-11T17:01:21.192Z,99697.52
2018-01-11T17:07:24.966Z,99705.65
2018-01-11T17:13:28.647Z,99710.58
2018-01-11T17:19:32.135Z,99714.34
2018-01-11T17:25:36.432Z,99719.29
2018-01-11T17:31:39.939Z,99725.66
2018-01-11T17:37:43.445Z,99736.48
2018-01-11T17:43:47.157Z,99734.52
2018-01-11T17:49:50.597Z,99736.03
2018-01-11T17:55:54.184Z,99737.00
2018-01-11T18:01:58.669Z,99745.02
2018-01-11T18:08:02.138Z,99748.67
2018-01-11T18:14:05.598Z,99750.37
2018-01-11T18:20:09.022Z,99760.92
2018-01-11T18:26:13.301Z,99766.98
2018-01-11T18:32:16.789Z,99770.72
2018-01-11T18:38:20.293Z,99773.29
2018-01-11T18:44:24.818Z,99783.13
2018-01-11T18:50:29.350Z,99784.21
2018-01-11T18:56:32.882Z,99785.38
2018-01-11T19:02:36.532Z,99789.24
2018-01-11T19:08:40.037Z,99798.59
2018-01-11T19:14:44.254Z,99802.61
2018-01-11T19:20:47.665Z,99800.45
2018-01-11T19:26:51.115Z,99801.73
2018-01-11T19:32:54.760Z,99804.52
2018-01-11T19:38:58.676Z,99816.00
2018-01-11T19:45:02.144Z,99822.44
2018-01-11T19:51:06.623Z,99836.36
2018-01-11T19:57:10.168Z,99839.45
2018-01-11T20:03:13.598Z,99846.92
2018-01-11T20:09:17.170Z,99851.18
2018-01-11T20:15:20.758Z,99858.80
2018-01-11T20:21:24.969Z,99866.61
2018-01-11T20:27:28.461Z,99868.47
2018-01-11T20:33:31.994Z,99871.27
2018-01-11T20:39:35.456Z,99876.22
2018-01-11T20:45:38.938Z,99886.17
2018-01-11T20:51:42.409Z,99889.17
2018-01-11T20:57:46.758Z,99893.94
2018-01-11T21:03:50.253Z,99899.52
2018-01-11T21:09:53.791Z,99905.67
2018-01-11T21:15:58.390Z,99913.14
2018-01-11T21:22:01.876Z,99914.16
2018-01-11T21:28:05.451Z,99928.47
2018-01-11T21:34:08.927Z,99928.62
2018-01-11T21:40:13.154Z,99929.88
2018-01-11T21:46:16.688Z,99937.84
2018-01-11T21:52:20.190Z,99938.67
2018-01-11T21:58:23.788Z,99949.62
2018-01-11T22:04:27.295Z,99951.62
2018-01-11T22:10:30.764Z,99964.66
2018-01-11T22:16:35.000Z,99971.69
2018-01-11T22:22:38.494Z,99976.09
2018-01-11T22:28:42.786Z,99978.71
2018-01-11T22:34:46.272Z,99988.23
2018-01-11T22:40:49.766Z,99989.94
2018-01-11T22:46:54.050Z,99993.13
2018-01-11T22:52:58.534Z,100007.39
2018-01-11T22:59:02.054Z,100005.83
2018-01-11T23:05:05.531Z,100004.46
2018-01-11T23:11:09.779Z,100007.81
2018-01-11T23:17:13.244Z,100013.41
2018-01-11T23:23:16.728Z,100013.86
2018-01-11T23:29:20.178Z,100006.47
2018-01-11T23:35:24.914Z,100008.31
2018-01-11T23:41:28.664Z,100002.41
2018-01-11T23:47:32.250Z,100006.28
2018-01-11T23:53:35.720Z,100013.64
2018-01-11T23:59:39.952Z,100016.57
